Time;durP1;ratioP1;P1;durP2;ratioP2;P2;SDS_P1;SDS_P2;PMS_P1;PMS_P2;Temp;Humidity;BMP_temperature;BMP_pressure;BME280_temperature;BME280_humidity;BME280_pressure;Samples;Min_cycle;Max_cycle;Signal;HPM_P1;HPM_P2
2023/07/08 00:00:10;;;;;;;4.93;3.53;;;;;;;20.28;65.70;101115.63;4957238;28;20216;-82
2023/07/08 00:02:36;;;;;;;3.87;2.93;;;;;;;20.26;65.55;101120.13;4956982;28;20216;-83
2023/07/08 00:05:05;;;;;;;4.20;2.60;;;;;;;20.24;65.52;101133.47;4948812;28;20236;-82
2023/07/08 00:07:31;;;;;;;4.23;2.73;;;;;;;20.18;66.03;101119.66;4957051;28;20679;-81
2023/07/08 00:09:57;;;;;;;3.80;2.90;;;;;;;20.18;66.12;101117.84;4964864;28;20254;-83
2023/07/08 00:12:24;;;;;;;2.97;2.73;;;;;;;20.11;66.50;101103.16;4962670;28;20210;-79
2023/07/08 00:14:50;;;;;;;3.70;2.43;;;;;;;20.06;66.70;101091.06;4958850;28;20637;-81
2023/07/08 00:17:16;;;;;;;3.30;3.10;;;;;;;20.01;67.28;101080.69;4956719;28;20248;-83
2023/07/08 00:19:43;;;;;;;3.10;2.87;;;;;;;19.95;67.14;101073.88;4955600;28;20279;-83
2023/07/08 00:22:14;;;;;;;2.53;2.33;;;;;;;19.95;66.79;101086.28;4956390;28;20217;-82
2023/07/08 00:24:40;;;;;;;2.47;2.27;;;;;;;19.94;65.78;101108.41;4964098;28;20224;-82
2023/07/08 00:27:09;;;;;;;3.97;2.63;;;;;;;19.95;65.93;101129.53;4964242;28;20667;-83
2023/07/08 00:29:35;;;;;;;4.60;3.10;;;;;;;19.95;66.11;101118.94;4956761;28;20213;-83
2023/07/08 00:32:02;;;;;;;3.30;2.97;;;;;;;19.98;65.94;101126.75;4956656;28;20205;-83
2023/07/08 00:34:28;;;;;;;3.03;2.47;;;;;;;19.98;66.30;101126.75;4963797;28;20233;-83
2023/07/08 00:36:58;;;;;;;4.27;3.00;;;;;;;19.99;65.51;101140.88;4955362;28;20594;-82
2023/07/08 00:39:25;;;;;;;2.87;2.60;;;;;;;19.93;65.99;101139.34;4961440;28;20237;-83
2023/07/08 00:41:54;;;;;;;2.70;2.50;;;;;;;19.88;65.37;101151.09;4959954;28;20207;-82
2023/07/08 00:44:20;;;;;;;3.17;2.87;;;;;;;19.69;65.86;101145.78;4962100;28;20252;-81
2023/07/08 00:46:58;;;;;;;3.30;2.83;;;;;;;19.68;66.05;101138.75;4959423;28;20702;-83
2023/07/08 00:49:31;;;;;;;5.13;3.47;;;;;;;19.51;66.74;101118.34;4959517;28;20231;-83
2023/07/08 00:51:57;;;;;;;3.73;3.43;;;;;;;19.44;66.96;101117.72;4959296;28;20305;-83
2023/07/08 00:54:24;;;;;;;5.67;3.90;;;;;;;19.32;67.93;101082.06;4959213;28;20226;-83
2023/07/08 00:56:54;;;;;;;3.57;3.30;;;;;;;19.33;67.54;101085.63;4959327;28;20695;-80
2023/07/08 00:59:25;;;;;;;3.93;3.40;;;;;;;19.31;68.38;101075.09;4967759;28;20247;-82
2023/07/08 01:01:54;;;;;;;4.43;3.80;;;;;;;19.28;68.97;101064.63;4960830;28;20902;-83
2023/07/08 01:04:24;;;;;;;4.07;3.63;;;;;;;19.23;69.00;101045.47;4965680;28;20241;-83
2023/07/08 01:06:57;;;;;;;3.70;3.40;;;;;;;19.15;69.48;101026.44;4960484;28;20204;-83
2023/07/08 01:09:26;;;;;;;3.07;2.83;;;;;;;19.17;69.30;101027.22;4960534;28;20240;-82
2023/07/08 01:11:57;;;;;;;3.53;3.13;;;;;;;19.15;68.65;101042.31;4961063;28;20205;-82
2023/07/08 01:14:27;;;;;;;3.13;2.90;;;;;;;19.09;68.63;101054.03;4960069;28;20216;-82
2023/07/08 01:16:53;;;;;;;4.27;3.03;;;;;;;18.98;68.66;101053.63;4960630;28;20205;-82
2023/07/08 01:19:31;;;;;;;3.47;2.80;;;;;;;18.93;68.36;101060.91;4965373;28;20566;-82
2023/07/08 01:22:00;;;;;;;6.00;3.23;;;;;;;18.92;68.46;101064.47;4969661;28;20581;-83
2023/07/08 01:24:28;;;;;;;3.80;3.10;;;;;;;18.88;68.72;101055.81;4966448;28;20216;-81
2023/07/08 01:26:57;;;;;;;3.33;3.03;;;;;;;18.84;68.69;101052.44;4961843;28;20726;-83
2023/07/08 01:29:24;;;;;;;3.00;2.80;;;;;;;18.79;69.46;101035.94;4959997;28;20604;-82
2023/07/08 01:31:50;;;;;;;3.40;3.10;;;;;;;18.78;69.86;101028.00;4968452;28;20204;-82
2023/07/08 01:34:17;;;;;;;3.30;3.00;;;;;;;18.78;69.54;101026.22;4968168;28;20220;-83
2023/07/08 01:36:49;;;;;;;4.77;3.17;;;;;;;18.72;69.46;101029.13;4959962;28;20232;-83
2023/07/08 01:39:22;;;;;;;3.63;2.83;;;;;;;18.64;68.85;101044.47;4964544;28;20204;-84
2023/07/08 01:41:48;;;;;;;3.33;2.97;;;;;;;18.55;69.31;101045.75;4963422;28;20248;-83
2023/07/08 01:44:28;;;;;;;4.57;2.87;;;;;;;18.54;69.03;101049.31;4960879;28;20251;-83
2023/07/08 01:46:56;;;;;;;3.77;3.47;;;;;;;18.53;68.59;101058.16;4960540;28;20267;-82
2023/07/08 01:49:24;;;;;;;3.33;2.80;;;;;;;18.54;68.67;101064.31;4959889;28;20216;-83
2023/07/08 01:51:51;;;;;;;4.23;2.80;;;;;;;18.51;68.85;101059.13;4960220;28;20232;-82
2023/07/08 01:54:17;;;;;;;3.43;3.13;;;;;;;18.39;69.18;101049.94;4961521;28;20224;-83
2023/07/08 01:56:45;;;;;;;3.87;3.10;;;;;;;18.35;69.57;101041.28;4960672;28;20204;-83
2023/07/08 01:59:11;;;;;;;4.17;3.03;;;;;;;18.28;69.51;101028.41;4952160;28;20204;-84
2023/07/08 02:01:38;;;;;;;3.70;3.40;;;;;;;18.26;69.95;101024.03;4960190;28;20220;-83
2023/07/08 02:04:04;;;;;;;3.70;3.40;;;;;;;18.24;69.54;101020.59;4959092;28;20265;-82
2023/07/08 02:06:30;;;;;;;4.07;3.13;;;;;;;18.28;68.53;101036.34;4960439;28;20316;-82
2023/07/08 02:08:58;;;;;;;3.47;3.27;;;;;;;18.34;67.90;101059.88;4968542;28;20211;-83
2023/07/08 02:11:25;;;;;;;3.40;3.10;;;;;;;18.31;67.98;101065.25;4960402;28;20208;-83
2023/07/08 02:13:53;;;;;;;3.33;3.13;;;;;;;18.34;68.08;101070.44;4967933;28;20284;-83
2023/07/08 02:16:19;;;;;;;3.33;3.03;;;;;;;18.30;68.50;101058.28;4960094;28;20201;-83
2023/07/08 02:18:46;;;;;;;5.33;3.73;;;;;;;18.30;68.71;101053.84;4959914;28;20236;-83
2023/07/08 02:21:13;;;;;;;4.60;3.40;;;;;;;18.31;68.01;101073.19;4960166;28;20255;-83
2023/07/08 02:23:40;;;;;;;3.03;2.83;;;;;;;18.28;68.04;101073.34;4959443;28;20834;-83
2023/07/08 02:26:08;;;;;;;3.10;2.80;;;;;;;18.32;69.03;101067.00;4959909;28;20212;-83
2023/07/08 02:28:34;;;;;;;3.37;2.83;;;;;;;18.31;68.34;101071.41;4959840;28;20268;-83
2023/07/08 02:31:04;;;;;;;3.33;3.13;;;;;;;18.37;67.75;101076.44;4960367;28;20204;-83
2023/07/08 02:33:32;;;;;;;3.10;2.90;;;;;;;18.39;68.30;101084.31;4959224;28;20216;-83
2023/07/08 02:35:59;;;;;;;3.17;2.87;;;;;;;18.31;68.46;101071.41;4963873;28;20204;-82
2023/07/08 02:38:25;;;;;;;3.57;2.90;;;;;;;18.26;68.85;101060.16;4964787;28;20200;-83
2023/07/08 02:40:52;;;;;;;3.13;2.83;;;;;;;18.20;69.22;101042.78;4962535;28;20264;-83
2023/07/08 02:43:18;;;;;;;3.37;3.07;;;;;;;18.16;69.77;101032.41;4959741;28;20247;-83
2023/07/08 02:45:44;;;;;;;2.87;2.67;;;;;;;18.18;68.75;101041.13;4959685;28;20228;-83
2023/07/08 02:48:12;;;;;;;3.00;2.70;;;;;;;18.18;68.29;101063.13;4967779;28;20667;-83
2023/07/08 02:50:38;;;;;;;8.77;3.30;;;;;;;18.13;69.06;101065.06;4959886;28;20215;-83
2023/07/08 02:53:04;;;;;;;3.07;2.87;;;;;;;18.10;69.89;101041.44;4968209;28;20240;-83
2023/07/08 02:55:31;;;;;;;5.40;3.27;;;;;;;18.12;69.99;101030.81;4965053;28;20199;-84
2023/07/08 02:57:57;;;;;;;3.33;2.83;;;;;;;18.10;70.17;101003.59;4962558;28;20204;-83
2023/07/08 03:00:28;;;;;;;3.00;2.80;;;;;;;18.04;69.21;101026.69;4959160;28;20204;-82
2023/07/08 03:02:55;;;;;;;3.30;3.10;;;;;;;18.08;67.76;101056.50;4966906;28;20282;-83
2023/07/08 03:05:23;;;;;;;7.30;3.20;;;;;;;18.11;66.94;101092.50;4963041;28;20214;-83
2023/07/08 03:07:49;;;;;;;3.27;2.97;;;;;;;18.10;66.94;101112.78;4958484;28;20432;-83
2023/07/08 03:10:15;;;;;;;3.50;3.20;;;;;;;18.11;66.69;101122.41;4959618;28;20201;-83
2023/07/08 03:12:42;;;;;;;3.63;3.43;;;;;;;18.10;66.92;101127.78;4959468;28;20204;-83
2023/07/08 03:15:09;;;;;;;3.80;3.50;;;;;;;18.07;66.52;101131.38;4969348;28;20241;-83
2023/07/08 03:17:38;;;;;;;3.83;3.53;;;;;;;18.06;66.67;101135.81;4964214;28;20197;-82
2023/07/08 03:20:05;;;;;;;3.70;3.40;;;;;;;18.01;66.78;101132.47;4958523;28;20205;-84
2023/07/08 03:22:33;;;;;;;3.30;2.90;;;;;;;18.00;67.01;101114.91;4959412;28;20221;-84
2023/07/08 03:24:59;;;;;;;3.67;3.37;;;;;;;17.92;67.29;101126.69;4965736;28;20221;-83
2023/07/08 03:27:25;;;;;;;3.37;2.80;;;;;;;17.85;68.22;101104.94;4966870;29;20631;-81
2023/07/08 03:29:52;;;;;;;4.30;3.00;;;;;;;17.84;68.33;101090.88;4974914;28;20191;-84
2023/07/08 03:32:18;;;;;;;3.97;3.50;;;;;;;17.75;69.35;101064.78;4957721;28;20267;-83
2023/07/08 03:34:44;;;;;;;3.60;3.30;;;;;;;17.73;69.69;101039.38;4960353;28;20272;-82
2023/07/08 03:37:11;;;;;;;3.83;3.53;;;;;;;17.78;69.09;101042.66;4956193;28;20243;-82
2023/07/08 03:39:38;;;;;;;3.70;3.50;;;;;;;17.81;68.74;101058.41;4955899;28;20215;-82
2023/07/08 03:42:06;;;;;;;6.67;3.63;;;;;;;17.80;68.89;101060.19;4963657;28;20292;-81
2023/07/08 03:44:32;;;;;;;4.63;3.00;;;;;;;17.77;69.23;101057.66;4956061;28;20256;-83
2023/07/08 03:46:58;;;;;;;3.63;3.30;;;;;;;17.75;69.86;101051.59;4963791;28;20192;-81
2023/07/08 03:49:25;;;;;;;4.77;3.53;;;;;;;17.60;70.71;101021.38;4956338;28;20551;-81
2023/07/08 03:51:54;;;;;;;3.80;3.40;;;;;;;17.58;71.43;100988.91;4956191;28;20197;-83
2023/07/08 03:54:22;;;;;;;2.93;2.73;;;;;;;17.57;72.31;100965.19;4948093;28;20235;-82
2023/07/08 03:56:50;;;;;;;5.20;3.00;;;;;;;17.64;72.14;100961.38;4956121;28;20196;-82
2023/07/08 03:59:16;;;;;;;3.27;2.90;;;;;;;17.63;72.44;100949.94;4956518;28;20240;-83
2023/07/08 04:01:42;;;;;;;3.37;3.13;;;;;;;17.59;73.35;100929.03;4956082;28;20220;-84
2023/07/08 04:04:16;;;;;;;3.33;3.03;;;;;;;17.64;73.70;100916.47;4969799;23;20268;-81
2023/07/08 04:07:05;;;;;;;3.73;3.43;;;;;;;17.54;73.99;100904.59;4935514;29;20248;-81
2023/07/08 04:09:37;;;;;;;3.83;3.43;;;;;;;17.52;74.12;100894.13;4934531;29;20735;-81
2023/07/08 04:12:09;;;;;;;3.90;3.60;;;;;;;17.51;73.76;100899.44;4937797;29;20205;-80
2023/07/08 04:14:42;;;;;;;6.13;3.63;;;;;;;17.53;73.14;100927.50;4937202;29;20214;-81
2023/07/08 04:17:15;;;;;;;4.90;4.10;;;;;;;17.53;73.63;100919.56;4938009;29;20272;-80
2023/07/08 04:19:43;;;;;;;6.43;3.70;;;;;;;17.55;73.51;100927.44;4938499;29;20684;-81
2023/07/08 04:22:13;;;;;;;6.07;3.97;;;;;;;17.53;73.31;100943.31;4930442;29;20244;-81
2023/07/08 04:24:48;;;;;;;4.30;3.83;;;;;;;17.53;73.63;100940.69;4940838;29;20232;-81
2023/07/08 04:27:19;;;;;;;4.70;4.23;;;;;;;17.53;73.84;100930.13;4941371;29;20208;-80
2023/07/08 04:29:45;;;;;;;4.77;3.97;;;;;;;17.55;74.09;100930.06;4941467;29;20237;-80
2023/07/08 04:32:24;;;;;;;4.70;3.77;;;;;;;17.51;74.60;100915.28;4940645;29;20209;-81
2023/07/08 04:34:51;;;;;;;4.73;3.87;;;;;;;17.44;75.68;100896.19;4941364;29;20245;-80
2023/07/08 04:37:20;;;;;;;4.50;3.50;;;;;;;17.52;75.96;100883.56;4948949;29;20256;-80
2023/07/08 04:39:52;;;;;;;4.80;3.50;;;;;;;17.60;76.40;100862.97;4940812;29;20208;-82
2023/07/08 04:42:28;;;;;;;3.60;3.30;;;;;;;17.63;76.16;100860.19;4941414;29;20240;-81
2023/07/08 04:44:54;;;;;;;6.60;4.30;;;;;;;17.69;75.24;100896.03;4940166;29;20284;-81
2023/07/08 04:47:24;;;;;;;4.47;3.67;;;;;;;17.72;74.74;100902.97;4939661;29;20719;-81
2023/07/08 04:50:11;;;;;;;4.70;4.00;;;;;;;17.77;73.74;100943.25;4933224;29;20281;-81
2023/07/08 04:52:42;;;;;;;4.97;4.17;;;;;;;17.78;73.12;100971.38;4931575;29;20232;-80
2023/07/08 04:55:17;;;;;;;4.53;3.90;;;;;;;17.80;72.57;101003.84;4930570;29;20225;-81
2023/07/08 04:57:47;;;;;;;5.57;4.47;;;;;;;17.79;73.16;100997.72;4932948;29;20209;-81
2023/07/08 05:00:19;;;;;;;4.80;4.30;;;;;;;17.81;73.04;101000.31;4935706;29;20259;-81
2023/07/08 05:02:53;;;;;;;4.20;3.90;;;;;;;17.83;72.37;101017.84;4932803;29;20222;-81
2023/07/08 05:05:20;;;;;;;5.50;4.00;;;;;;;17.86;71.24;101040.66;4941996;29;20244;-80
2023/07/08 05:07:53;;;;;;;4.50;4.10;;;;;;;17.85;71.64;101052.97;4936514;29;20221;-81
2023/07/08 05:10:22;;;;;;;4.63;4.03;;;;;;;17.84;72.05;101053.91;4935413;29;20233;-81
2023/07/08 05:12:52;;;;;;;5.50;4.13;;;;;;;17.92;72.23;101044.81;4932117;29;20207;-82
2023/07/08 05:15:26;;;;;;;4.00;3.70;;;;;;;17.96;71.25;101057.84;4935528;29;20229;-81
2023/07/08 05:17:54;;;;;;;4.13;3.83;;;;;;;18.01;70.54;101089.34;4933306;29;20288;-82
2023/07/08 05:20:30;;;;;;;4.33;4.03;;;;;;;18.07;70.79;101086.47;4934632;29;20587;-81
2023/07/08 05:22:59;;;;;;;6.97;4.27;;;;;;;18.13;71.03;101082.72;4934618;29;20292;-81
2023/07/08 05:25:25;;;;;;;4.17;3.80;;;;;;;18.17;70.34;101090.47;5019304;23;20268;-80
2023/07/08 05:27:53;;;;;;;4.53;3.87;;;;;;;18.24;70.45;101101.66;5018618;28;20218;-80
2023/07/08 05:30:19;;;;;;;4.87;4.47;;;;;;;18.28;70.78;101100.63;5008315;28;20223;-79
2023/07/08 05:32:46;;;;;;;5.33;4.30;;;;;;;18.35;70.80;101085.34;4995597;28;20227;-80
2023/07/08 05:35:13;;;;;;;6.07;5.10;;;;;;;18.41;70.49;101085.97;4994945;28;20208;-80
2023/07/08 05:37:39;;;;;;;7.07;4.20;;;;;;;18.45;70.52;101089.34;5002337;28;20208;-80
2023/07/08 05:40:07;;;;;;;4.37;3.97;;;;;;;18.49;70.48;101085.63;5000053;28;20258;-80
2023/07/08 05:42:34;;;;;;;4.67;3.80;;;;;;;18.52;70.97;101076.75;5002716;28;20219;-80
2023/07/08 05:45:02;;;;;;;4.13;3.73;;;;;;;18.56;70.56;101084.47;5003670;28;20207;-79
2023/07/08 05:47:28;;;;;;;4.33;3.93;;;;;;;18.59;70.52;101079.06;5006298;28;20191;-80
2023/07/08 05:49:54;;;;;;;4.33;3.93;;;;;;;18.64;70.43;101084.16;5002200;28;20689;-80
2023/07/08 05:52:21;;;;;;;5.10;3.73;;;;;;;18.66;70.34;101100.81;5002068;28;20204;-80
2023/07/08 05:54:47;;;;;;;4.37;3.97;;;;;;;18.68;70.74;101083.09;5001129;28;20203;-78
2023/07/08 05:57:13;;;;;;;5.83;4.03;;;;;;;18.74;71.19;101079.34;5002572;28;20215;-80
2023/07/08 05:59:40;;;;;;;4.37;4.07;;;;;;;18.77;70.28;101088.00;5006463;28;20636;-80
2023/07/08 06:02:10;;;;;;;4.77;4.10;;;;;;;18.80;70.05;101111.69;5017320;28;20285;-79
2023/07/08 06:04:37;;;;;;;4.17;3.87;;;;;;;18.84;70.38;101110.63;5005509;28;20603;-80
2023/07/08 06:07:03;;;;;;;4.17;3.77;;;;;;;18.89;70.76;101091.06;5006814;28;20463;-80
2023/07/08 06:09:30;;;;;;;5.80;4.20;;;;;;;18.94;70.63;101091.72;5009922;28;20231;-80
2023/07/08 06:11:56;;;;;;;5.03;4.10;;;;;;;19.00;70.54;101087.03;5009749;28;20196;-79
2023/07/08 06:14:23;;;;;;;5.10;4.40;;;;;;;19.03;70.59;101084.25;5011577;28;20211;-80
2023/07/08 06:16:49;;;;;;;6.83;4.27;;;;;;;19.06;71.14;101075.31;5002904;28;20227;-80
2023/07/08 06:19:17;;;;;;;6.03;4.03;;;;;;;19.14;70.51;101080.25;5006901;28;20616;-80
2023/07/08 06:21:43;;;;;;;3.97;3.67;;;;;;;19.20;71.40;101078.19;5006321;28;20258;-80
2023/07/08 06:24:10;;;;;;;4.97;4.17;;;;;;;19.24;71.58;101060.41;4991745;28;20219;-83
2023/07/08 06:26:36;;;;;;;6.50;4.00;;;;;;;19.31;71.65;101053.91;5006839;28;20226;-80
2023/07/08 06:29:03;;;;;;;4.17;3.43;;;;;;;19.39;70.71;101072.94;5000259;28;20265;-81
2023/07/08 06:31:30;;;;;;;4.77;4.37;;;;;;;19.44;70.16;101099.19;5004392;28;20211;-80
2023/07/08 06:33:56;;;;;;;4.27;3.83;;;;;;;19.51;70.41;101107.75;5003281;28;20212;-80
2023/07/08 06:36:24;;;;;;;4.27;3.97;;;;;;;19.56;69.68;101117.19;5004229;28;20216;-80
2023/07/08 06:38:50;;;;;;;4.23;3.70;;;;;;;19.60;69.54;101129.38;5004620;28;20199;-80
2023/07/08 06:41:17;;;;;;;5.87;4.20;;;;;;;19.65;68.99;101151.19;5003623;28;20278;-80
2023/07/08 06:43:43;;;;;;;5.23;4.00;;;;;;;19.70;69.80;101142.19;5003195;28;20220;-80
2023/07/08 06:46:10;;;;;;;5.03;3.97;;;;;;;19.74;69.82;101130.53;5004533;28;20371;-80
2023/07/08 06:48:36;;;;;;;4.13;3.73;;;;;;;19.78;70.13;101121.50;5003573;28;20262;-80
2023/07/08 06:51:03;;;;;;;4.13;3.73;;;;;;;19.83;70.87;101109.78;5001516;28;20231;-80
2023/07/08 06:53:30;;;;;;;5.67;3.37;;;;;;;19.88;71.41;101085.75;4992829;28;20212;-80
2023/07/08 06:55:57;;;;;;;5.37;3.87;;;;;;;19.91;72.72;101035.22;4991271;28;20203;-81
2023/07/08 06:58:23;;;;;;;5.03;3.70;;;;;;;19.93;72.09;101046.59;5010938;28;20264;-80
2023/07/08 07:00:50;;;;;;;4.17;3.63;;;;;;;19.89;75.96;100962.91;5004065;28;20231;-80
2023/07/08 07:03:16;;;;;;;4.13;3.60;;;;;;;19.78;79.06;100865.44;5007861;28;20227;-81
2023/07/08 07:05:44;;;;;;;5.07;4.30;;;;;;;19.74;77.48;100866.53;5009463;28;20208;-80
2023/07/08 07:08:10;;;;;;;3.70;3.40;;;;;;;19.88;75.94;100889.66;5004858;28;20270;-80
2023/07/08 07:10:38;;;;;;;4.07;3.73;;;;;;;19.99;73.59;100971.25;5008182;28;20248;-80
2023/07/08 07:13:05;;;;;;;4.63;4.00;;;;;;;20.09;72.36;101019.38;4999274;28;20231;-80
2023/07/08 07:15:32;;;;;;;4.80;4.13;;;;;;;20.14;73.59;101020.00;5003833;28;20625;-80
2023/07/08 07:17:58;;;;;;;3.87;3.60;;;;;;;20.19;77.46;100935.78;5010467;28;20228;-81
2023/07/08 07:20:25;;;;;;;7.67;3.97;;;;;;;20.21;78.61;100879.09;4991630;28;20227;-81
2023/07/08 07:22:52;;;;;;;3.97;3.63;;;;;;;20.30;75.38;100912.25;5003530;28;20223;-81
2023/07/08 07:25:18;;;;;;;6.37;3.90;;;;;;;20.41;72.85;100988.56;5003357;28;20220;-80
2023/07/08 07:27:46;;;;;;;4.93;4.23;;;;;;;20.46;74.88;100986.56;5003044;28;20210;-80
2023/07/08 07:30:14;;;;;;;4.67;4.27;;;;;;;20.56;73.29;101003.72;5003292;28;20601;-80
2023/07/08 07:32:41;;;;;;;5.37;3.90;;;;;;;20.67;71.03;101072.13;5006204;28;20277;-80
2023/07/08 07:35:12;;;;;;;4.47;4.07;;;;;;;20.77;70.51;101115.88;4990666;28;20576;-80
2023/07/08 07:37:39;;;;;;;4.67;4.13;;;;;;;20.88;69.99;101133.88;4998789;28;20223;-80
2023/07/08 07:40:12;;;;;;;4.13;3.73;;;;;;;20.91;69.08;101165.59;4980961;28;20230;-78
2023/07/08 07:42:39;;;;;;;4.30;3.90;;;;;;;20.94;70.67;101144.19;4991896;28;20220;-79
2023/07/08 07:45:08;;;;;;;4.73;3.93;;;;;;;21.03;69.57;101159.66;5001912;28;20208;-78
2023/07/08 07:47:34;;;;;;;4.23;3.90;;;;;;;21.10;68.11;101193.84;4983027;28;20203;-79
2023/07/08 07:50:01;;;;;;;4.10;3.80;;;;;;;21.16;68.48;101193.53;4981623;28;20279;-78
2023/07/08 07:52:28;;;;;;;4.67;4.17;;;;;;;21.23;68.02;101210.88;4990314;28;20204;-78
2023/07/08 07:54:55;;;;;;;5.67;4.13;;;;;;;21.29;67.72;101201.72;4984204;28;20200;-78
2023/07/08 07:57:22;;;;;;;4.47;4.03;;;;;;;21.34;67.46;101227.09;4986916;28;20203;-78
2023/07/08 07:59:49;;;;;;;5.20;3.70;;;;;;;21.37;68.82;101203.06;5009309;28;20226;-78
2023/07/08 08:02:18;;;;;;;4.40;3.90;;;;;;;21.44;67.96;101208.91;4988986;28;20267;-78
2023/07/08 08:04:44;;;;;;;3.93;3.57;;;;;;;21.57;67.53;101219.78;4996256;28;20572;-81
2023/07/08 08:07:10;;;;;;;4.00;3.60;;;;;;;21.61;70.10;101182.34;5012018;28;20533;-81
2023/07/08 08:09:37;;;;;;;4.33;3.93;;;;;;;21.68;68.04;101188.16;4995824;28;20335;-81
2023/07/08 08:12:05;;;;;;;3.93;3.63;;;;;;;21.75;68.00;101217.94;5010018;28;20687;-81
2023/07/08 08:14:32;;;;;;;5.60;3.90;;;;;;;21.83;67.91;101205.09;4993260;28;20211;-81
2023/07/08 08:16:58;;;;;;;5.13;3.90;;;;;;;21.93;68.37;101202.81;4990522;28;20270;-80
2023/07/08 08:19:26;;;;;;;4.37;4.07;;;;;;;22.04;68.45;101187.13;5000773;28;20223;-81
2023/07/08 08:21:52;;;;;;;4.40;4.00;;;;;;;22.07;67.53;101221.53;5000497;28;20666;-80
2023/07/08 08:24:18;;;;;;;4.70;4.40;;;;;;;22.14;68.02;101211.38;5007371;28;20282;-81
2023/07/08 08:26:45;;;;;;;5.43;4.30;;;;;;;22.16;68.53;101190.88;5011428;28;20204;-81
2023/07/08 08:29:12;;;;;;;4.07;3.77;;;;;;;22.26;68.13;101199.25;5010160;28;20654;-81
2023/07/08 08:31:39;;;;;;;6.87;4.00;;;;;;;22.30;68.48;101204.34;5010661;28;20262;-81
2023/07/08 08:34:05;;;;;;;4.20;3.90;;;;;;;22.40;69.12;101184.25;5010586;28;20204;-81
2023/07/08 08:36:33;;;;;;;10.20;5.30;;;;;;;22.45;68.31;101188.44;5018800;28;20208;-81
2023/07/08 08:38:59;;;;;;;4.17;3.87;;;;;;;22.51;68.37;101198.72;5017362;28;20230;-81
2023/07/08 08:41:31;;;;;;;4.63;4.23;;;;;;;22.57;68.75;101193.06;4995008;28;20232;-80
2023/07/08 08:43:58;;;;;;;5.27;4.10;;;;;;;22.66;67.78;101210.31;4990235;28;20251;-79
2023/07/08 08:46:30;;;;;;;4.60;4.30;;;;;;;22.75;69.18;101207.09;5005500;28;20235;-79
2023/07/08 08:49:13;;;;;;;4.07;3.60;;;;;;;22.79;70.09;101142.97;5011421;28;20368;-80
2023/07/08 08:51:41;;;;;;;5.80;4.20;;;;;;;22.89;67.27;101209.81;5001097;28;20208;-81
2023/07/08 08:54:08;;;;;;;4.53;4.03;;;;;;;22.92;69.10;101171.53;5009511;28;20204;-81
2023/07/08 08:56:40;;;;;;;5.03;4.07;;;;;;;22.99;67.35;101213.69;5010005;28;20211;-80
2023/07/08 08:59:19;;;;;;;4.70;4.33;;;;;;;23.07;67.38;101199.97;5009013;28;20211;-80
2023/07/08 09:01:47;;;;;;;4.20;3.90;;;;;;;23.13;65.33;101279.50;5010152;28;20603;-81
2023/07/08 09:04:21;;;;;;;6.13;4.47;;;;;;;23.19;66.60;101249.81;5009055;28;20251;-81
2023/07/08 09:06:50;;;;;;;4.23;3.90;;;;;;;23.27;65.77;101268.03;5003981;28;20227;-80
2023/07/08 09:09:25;;;;;;;5.13;4.70;;;;;;;23.34;65.24;101296.00;5009242;28;20213;-80
2023/07/08 09:11:57;;;;;;;5.03;4.53;;;;;;;23.40;65.71;101292.13;5006141;28;20230;-82
2023/07/08 09:14:26;;;;;;;4.80;4.40;;;;;;;23.47;65.63;101292.59;5011335;28;20404;-81
2023/07/08 09:16:58;;;;;;;4.57;4.27;;;;;;;23.54;64.40;101316.13;5011741;28;20199;-81
2023/07/08 09:19:29;;;;;;;5.03;4.63;;;;;;;23.59;64.03;101332.72;4664618;28;10000149;-82
2023/07/08 09:22:02;;;;;;;5.23;4.73;;;;;;;23.63;66.50;101276.56;5006143;28;20236;-82
2023/07/08 09:24:33;;;;;;;5.03;4.73;;;;;;;23.72;70.56;101161.38;4993654;28;20236;-82
2023/07/08 09:27:02;;;;;;;5.70;4.97;;;;;;;23.81;71.24;101101.34;5012808;28;20206;-82
2023/07/08 09:29:29;;;;;;;5.73;5.33;;;;;;;23.91;69.95;101123.78;4990546;28;20213;-82
2023/07/08 09:31:56;;;;;;;5.80;5.30;;;;;;;23.94;67.52;101172.44;4989307;28;20204;-82
2023/07/08 09:34:24;;;;;;;7.07;5.10;;;;;;;24.04;64.92;101247.38;5005360;28;20203;-82
2023/07/08 09:36:52;;;;;;;6.47;5.77;;;;;;;24.10;63.76;101312.81;5009614;28;20184;-82
2023/07/08 09:39:21;;;;;;;6.30;5.73;;;;;;;24.16;64.14;101336.44;5016325;28;20210;-82
2023/07/08 09:41:50;;;;;;;6.47;5.93;;;;;;;24.20;64.42;101337.97;5005157;28;20199;-82
2023/07/08 09:44:28;;;;;;;7.30;5.83;;;;;;;24.29;63.37;101350.75;4996647;28;20255;-81
2023/07/08 09:46:55;;;;;;;7.03;6.50;;;;;;;24.39;63.38;101333.22;5010326;28;20208;-82
2023/07/08 09:49:25;;;;;;;7.27;6.63;;;;;;;24.48;63.26;101363.81;5017031;28;20233;-82
2023/07/08 09:51:52;;;;;;;6.77;5.93;;;;;;;24.54;65.62;101304.75;5002265;28;20220;-82
2023/07/08 09:54:22;;;;;;;7.00;6.30;;;;;;;24.63;67.22;101270.38;5005094;28;20204;-82
2023/07/08 09:56:59;;;;;;;6.70;6.10;;;;;;;24.75;64.73;101278.44;5009254;28;20215;-81
2023/07/08 09:59:31;;;;;;;6.43;5.83;;;;;;;24.85;68.97;101211.94;5009225;28;20241;-82
2023/07/08 10:02:02;;;;;;;7.00;6.43;;;;;;;24.92;64.59;101241.78;5022619;28;20204;-82
2023/07/08 10:04:29;;;;;;;6.40;5.90;;;;;;;25.07;66.44;101245.22;5011965;28;20237;-82
2023/07/08 10:06:56;;;;;;;6.43;5.93;;;;;;;25.16;63.47;101272.19;5007626;28;20211;-83
2023/07/08 10:09:25;;;;;;;6.20;5.70;;;;;;;25.23;61.77;101355.50;5008793;28;20378;-80
2023/07/08 10:11:58;;;;;;;7.23;6.60;;;;;;;25.30;62.23;101388.88;5009027;28;20257;-80
2023/07/08 10:14:29;;;;;;;6.77;6.10;;;;;;;25.39;60.60;101426.66;5004746;28;20203;-80
2023/07/08 10:16:56;;;;;;;6.80;6.10;;;;;;;25.46;61.59;101398.56;5009036;28;20204;-79
2023/07/08 10:19:23;;;;;;;6.47;5.97;;;;;;;25.55;61.95;101395.28;5004477;28;20360;-80
2023/07/08 10:22:06;;;;;;;7.33;6.63;;;;;;;25.66;59.25;101461.41;4988159;28;20233;-79
2023/07/08 10:24:54;;;;;;;7.30;6.60;;;;;;;25.74;61.92;101417.13;4985159;28;20236;-79
2023/07/08 10:27:27;;;;;;;6.67;6.03;;;;;;;25.87;62.80;101325.38;5005054;28;20752;-79
2023/07/08 10:30:11;;;;;;;5.97;5.53;;;;;;;26.00;60.79;101376.25;5009745;28;20250;-80
2023/07/08 10:32:45;;;;;;;6.17;5.70;;;;;;;26.10;60.01;101433.50;4989310;28;20212;-79
2023/07/08 10:35:19;;;;;;;6.67;6.13;;;;;;;26.19;57.48;101505.16;4999584;28;20211;-80
2023/07/08 10:38:10;;;;;;;6.43;5.80;;;;;;;26.28;57.00;101544.69;5014323;28;20214;-79
2023/07/08 10:40:48;;;;;;;6.00;5.47;;;;;;;26.38;55.32;101608.28;4998163;28;20235;-80
2023/07/08 10:43:26;;;;;;;5.87;5.43;;;;;;;26.47;56.33;101637.16;5005534;28;20339;-80
2023/07/08 10:46:04;;;;;;;6.70;6.13;;;;;;;26.59;56.43;101590.81;4997972;28;20216;-80
2023/07/08 10:48:47;;;;;;;6.13;5.53;;;;;;;26.66;56.78;101561.78;5005853;28;20204;-80
2023/07/08 10:51:24;;;;;;;5.73;5.23;;;;;;;26.74;58.10;101549.59;5005865;28;20223;-80
2023/07/08 10:54:06;;;;;;;5.80;5.30;;;;;;;26.82;53.78;101618.72;5001291;28;20199;-80
2023/07/08 10:56:41;;;;;;;5.33;4.90;;;;;;;26.93;53.73;101632.22;5017308;28;20210;-80
2023/07/08 10:59:20;;;;;;;5.00;4.70;;;;;;;27.00;51.93;101706.84;5011316;28;20206;-80
2023/07/08 11:02:03;;;;;;;5.47;5.03;;;;;;;27.06;51.86;101726.03;4999239;28;20210;-80
2023/07/08 11:04:47;;;;;;;5.43;4.93;;;;;;;27.14;50.87;101731.75;5004711;28;20235;-80
2023/07/08 11:07:18;;;;;;;5.70;5.17;;;;;;;27.23;52.66;101746.31;5008024;28;20216;-80
2023/07/08 11:09:49;;;;;;;5.70;5.30;;;;;;;27.44;58.73;101577.75;4986131;28;20259;-80
2023/07/08 11:12:25;;;;;;;5.67;5.10;;;;;;;27.52;51.35;101669.25;5000012;28;20207;-80
2023/07/08 11:15:00;;;;;;;4.87;4.57;;;;;;;27.63;50.61;101742.72;5008466;28;20200;-80
2023/07/08 11:17:32;;;;;;;4.83;4.60;;;;;;;27.74;48.96;101801.88;5002736;28;20237;-80
2023/07/08 11:20:03;;;;;;;5.50;5.10;;;;;;;27.83;48.85;101820.00;5008647;28;20222;-81
2023/07/08 11:22:34;;;;;;;4.93;4.53;;;;;;;27.97;49.94;101811.03;4998504;28;20262;-80
2023/07/08 11:25:04;;;;;;;4.90;4.40;;;;;;;28.13;50.41;101765.16;5002195;28;20215;-80
2023/07/08 11:27:38;;;;;;;5.10;4.80;;;;;;;28.29;51.91;101741.56;4992010;28;20208;-80
2023/07/08 11:30:13;;;;;;;5.20;4.80;;;;;;;28.52;53.75;101628.88;4984769;28;20224;-80
2023/07/08 11:32:41;;;;;;;5.10;4.63;;;;;;;28.64;47.19;101791.88;5010459;28;20197;-80